CYXL

Sioux Lookout Airport

Sioux Lookout, Ontario, Canada
METAR CYXL 170200Z 32010G15KT 15SM SCT030 OVC068 M01/M05 A2996 RMK SC4AC4 SLP168
Observed Flight Rules
Oct-17 @ 02:00 UTC (an hour ago) Visual Flight Rules
Wind Visibility Clouds
320° at 10 knots
 Gusting to 15 knots
15 miles
  • Scattered at 3,000' AGL
  • Overcast at 6,800' AGL
Temperatures Readings
Current -1°C / 30°F
Dewpoint -5°C / 23°F
Humidity 75%
Altimeter 29.96" Hg
Pressure 1016.8 hPa
Elevation 390
METAR CYXL 170200Z 32010G15KT 15SM SCT030 OVC068 M01/M05 A2996 RMK SC4AC4 SLP168
Observed Flight Rules
Oct-17 @ 02:00 UTC
(an hour ago)
VFR
Wind Visibility
320° at 10 knots
 Gusting to 15 knots
15 miles
Clouds
  • Scattered at 3,000' AGL
  • Overcast at 6,800' AGL
Temperature Dewpoint
-1°C / 30°F -5°C / 23°F
Humidity Altimeter Pressure
75% 29.96" Hg 1016.8 hPa